Terminal Aerodrome Forecast
Issued by NWS

Home | Current Version | Previous Version | Text Only | Print | Product List | Glossary On
Versions: 1 2 3 4 5 6 7 8 9 10 11 12 13 14
000
FTUS45 KTFX 210500
TAFBZN
TAF
KBZN 210520Z 2106/2206 15008KT P6SM SCT070 BKN120
     FM211400 VRB06KT P6SM VCSH BKN060 OVC090
      TEMPO 2118/2122 5SM -RA OVC025
     FM220000 02006KT P6SM SCT050 BKN090=

USA.gov is the U.S. government's official web portal to all federal, state and local government web resources and services.